• Join FlightAware (Why Join?)
  • Login
  • US Flag 
03:27AM EDT


 

Airport Tracker/Info


-or-


 

Live Flight TrackerFlight Track Log ✈ SKW6534 ✈ 28-Apr-2013 ✈ KIDA - KDEN

Flight Track Log - Related Links

Times and Time Zones

All times are in EDT time to prevent confusion due to time zone crossing. See the SKW6534 flight status page for this flight to view local times or setup timezone preferences in your user account.

Time Position Orientation Groundspeed Altitude Reporting Facility
EDT Latitude Longitude Course Direction KTS MPH feet Rate Location/Type
03:22PM 43.4869 -112.1500 262° West 189 217 7,900  Level Salt Lake Center
03:24PM 43.3019 -111.6728 127° Southeast  Level FlightAware Approximate
03:24PM 43.5369 -112.1119 29° Northeast 244 281 10,100  Level Salt Lake Center
03:25PM 43.2365 -111.5529 127° Southeast  Level FlightAware Approximate
03:25PM 43.4922 -112.0086 121° Southeast 277 319 12,900  Level Salt Lake Center
03:26PM 43.1711 -111.4331 127° Southeast  Level FlightAware Approximate
03:26PM 43.4397 -111.9153 128° Southeast 302 348 14,800  Level Salt Lake Center
03:27PM 43.1071 -111.3121 122° Southeast  Level FlightAware Approximate
03:27PM 43.3747 -111.7961 127° Southeast 335 386 16,600  Level Salt Lake Center
03:28PM 43.3167 -111.6861 126° Southeast 356 410 18,700 1,980 Climbing Salt Lake Center
03:29PM 43.2464 -111.5569 127° Southeast 374 430 20,700 1,620 Climbing Salt Lake Center
03:30PM 43.1856 -111.4447 127° Southeast 382 440 22,100 1,140 Climbing Salt Lake Center
03:31PM 43.1119 -111.3086 127° Southeast 397 457 23,100 720 Climbing Salt Lake Center
03:32PM 43.0467 -111.1900 127° Southeast 406 467 23,700 960 Climbing Salt Lake Center
03:33PM 42.9664 -111.0425 127° Southeast 430 495 25,100 1,020 Climbing Salt Lake Center
03:34PM 42.8967 -110.9153 127° Southeast 436 502 25,900 660 Climbing Salt Lake Center
03:35PM 42.8253 -110.7861 127° Southeast 443 510 26,500 840 Climbing Salt Lake Center
03:36PM 42.7422 -110.6367 127° Southeast 444 511 27,700 780 Climbing Salt Lake Center
03:37PM 42.6636 -110.4986 128° Southeast 448 516 28,200 480 Climbing Salt Lake Center
03:38PM 42.5892 -110.3656 127° Southeast 460 529 28,700 720 Climbing Salt Lake Center
03:39PM 42.5017 -110.2072 127° Southeast 469 540 29,700 840 Climbing Salt Lake Center
03:40PM 42.4253 -110.0744 128° Southeast 467 537 30,500 900 Climbing Salt Lake Center
03:41PM 42.3369 -109.9175 127° Southeast 469 540 31,600 840 Climbing Salt Lake Center
03:42PM 42.2619 -109.7867 128° Southeast 461 531 32,300 600 Climbing Salt Lake Center
03:43PM 42.1731 -109.6314 128° Southeast 467 537 32,900 300 Climbing Salt Lake Center
03:44PM 42.0958 -109.4978 128° Southeast 470 541 33,000  Climbing Salt Lake Center
03:45PM 42.0175 -109.3614 128° Southeast 476 548 33,000  Level Salt Lake Center
03:46PM 41.9231 -109.1972 128° Southeast 489 563 33,000  Level Salt Lake Center
03:47PM 41.8392 -109.0547 128° Southeast 502 578 33,000  Level Salt Lake Center
03:48PM 41.7425 -108.8883 128° Southeast 503 579 33,000  Level Salt Lake Center
03:49PM 41.6569 -108.7456 129° Southeast 508 585 33,000  Level Salt Lake Center
03:50PM 41.5742 -108.6011 127° Southeast 507 583 33,000  Level Salt Lake Center
03:51PM 41.4744 -108.4375 129° Southeast 507 583 33,000  Level Salt Lake Center
03:52PM 41.3958 -108.2906 125° Southeast 508 585 33,000  Level Salt Lake Center
03:53PM 41.3225 -108.1036 118° Southeast 509 586 33,000  Level Salt Lake Center
03:54PM 41.2594 -107.9442 118° Southeast 509 586 33,000  Level Salt Lake Center
03:55PM 41.1928 -107.7900 120° Southeast 504 580 33,000  Level Salt Lake Center
03:57PM 41.1100 -107.5800 118° Southeast 502 578 33,000  Level Denver Center
03:58PM 41.0364 -107.3992 118° Southeast 500 575 33,000  Level Denver Center
03:59PM 40.9725 -107.2447 119° Southeast 500 575 33,000  Level Denver Center
04:00PM 40.8983 -107.0664 119° Southeast 497 572 33,000  Level Denver Center
04:01PM 40.8350 -106.9139 119° Southeast 494 568 33,000  Level Denver Center
04:02PM 40.7603 -106.7358 119° Southeast 497 572 33,000  Level Denver Center
04:03PM 40.7006 -106.5903 118° Southeast 497 572 33,000  Level Denver Center
04:04PM 40.6222 -106.4067 119° Southeast 500 575 33,000 -60 Level Denver Center
04:05PM 40.5572 -106.2556 119° Southeast 498 573 32,900 -1,380 Descending Denver Center
04:06PM 40.4881 -106.0939 119° Southeast 495 570 30,000 -2,700 Descending Denver Center
04:07PM 40.4317 -105.9122 112° Southeast 454 522 26,800 -2,700 Descending Denver Center
04:08PM 40.4067 -105.7558 102° East 436 502 24,400 -2,220 Descending Denver Center
04:09PM 40.3794 -105.5839 102° East 411 473 22,300 -1,860 Descending Denver Center
04:10PM 40.3550 -105.4436 103° East 394 453 20,600 -1,620 Descending Denver Center
04:11PM 40.3169 -105.3200 112° Southeast 369 425 19,000 -1,560 Descending Denver Center
04:12PM 40.2867 -105.1994 108° East 352 405 17,400 -1,620 Descending Denver Center
04:13PM 40.2525 -105.0725 109° East 345 397 15,700 -1,620 Descending Denver Center
04:14PM 40.1819 -104.9969 141° Southeast 324 373 14,100 -1,320 Descending Denver Center
04:15PM 40.1025 -104.9239 145° Southeast 321 369 13,000 -540 Descending Denver Center
04:17PM 40.0297 -104.8581 145° Southeast 318 366 13,000 -60 Level Denver Center
04:18PM 39.9483 -104.7914 148° Southeast 325 374 12,900 -780 Descending Denver Center
04:19PM 39.8497 -104.7831 176° South 294 338 11,300 -900 Descending Denver Center
04:20PM 39.7800 -104.7792 178° South 250 288 11,100 -600 Descending Denver Center
04:21PM 39.7108 -104.7739 177° South 234 269 10,100 -840 Descending Denver Center
04:22PM 39.6625 -104.7347 148° Southeast 242 278 9,400 -720 Descending Denver Center